createdAt,value
2023-12-02T00:02:41.903Z,49.41
2023-12-02T00:05:27.371Z,49.25
2023-12-02T00:08:12.671Z,49.47
2023-12-02T00:10:58.166Z,49.65
2023-12-02T00:13:43.458Z,49.57
2023-12-02T00:16:28.941Z,49.71
2023-12-02T00:19:14.592Z,49.63
2023-12-02T00:21:59.786Z,49.73
2023-12-02T00:24:45.275Z,49.51
2023-12-02T00:27:30.774Z,49.66
2023-12-02T00:30:16.446Z,49.69
2023-12-02T00:33:02.153Z,49.63
2023-12-02T00:35:47.920Z,49.79
2023-12-02T00:38:33.563Z,49.90
2023-12-02T00:41:18.807Z,49.89
2023-12-02T00:44:04.330Z,49.74
2023-12-02T00:46:50.147Z,49.83
2023-12-02T00:49:35.494Z,49.93
2023-12-02T00:52:20.918Z,49.91
2023-12-02T00:55:07.222Z,50.43
2023-12-02T00:57:52.741Z,50.13
2023-12-02T01:00:38.215Z,50.14
2023-12-02T01:03:23.573Z,49.95
2023-12-02T01:06:10.091Z,49.83
2023-12-02T01:08:55.416Z,50.02
2023-12-02T01:11:40.947Z,49.98
2023-12-02T01:14:26.715Z,50.10
2023-12-02T01:17:12.868Z,50.04
2023-12-02T01:19:58.324Z,50.01
2023-12-02T01:22:43.465Z,50.01
2023-12-02T01:25:28.766Z,49.98
2023-12-02T01:28:14.102Z,49.99
2023-12-02T01:30:59.494Z,50.06
2023-12-02T01:33:45.037Z,50.03
2023-12-02T01:36:30.362Z,50.01
2023-12-02T01:39:15.967Z,49.92
2023-12-02T01:42:01.407Z,50.01
2023-12-02T01:44:46.927Z,49.91
2023-12-02T01:47:32.370Z,50.01
2023-12-02T01:50:19.404Z,49.95
2023-12-02T01:53:05.154Z,50.03
2023-12-02T01:55:50.614Z,49.97
2023-12-02T01:58:37.649Z,49.85
2023-12-02T02:01:23.401Z,50.08
2023-12-02T02:04:09.162Z,50.08
2023-12-02T02:06:54.753Z,50.07
2023-12-02T02:09:48.110Z,50.20
2023-12-02T02:12:33.828Z,50.04
2023-12-02T02:15:19.473Z,50.24
2023-12-02T02:18:05.098Z,50.01
2023-12-02T02:20:54.434Z,50.24
2023-12-02T02:23:39.932Z,50.23
2023-12-02T02:26:25.752Z,50.30
2023-12-02T02:29:11.116Z,50.37
2023-12-02T02:31:56.457Z,50.21
2023-12-02T02:34:43.048Z,50.24
2023-12-02T02:37:28.301Z,50.24
2023-12-02T02:40:13.905Z,50.21
2023-12-02T02:42:59.562Z,50.28
2023-12-02T02:45:44.958Z,50.16
2023-12-02T02:48:30.601Z,50.18
2023-12-02T02:51:15.822Z,50.14
2023-12-02T02:54:01.370Z,50.13
2023-12-02T02:56:46.763Z,50.12
2023-12-02T02:59:32.581Z,50.08
2023-12-02T03:02:18.312Z,49.99
2023-12-02T03:05:05.361Z,50.11
2023-12-02T03:07:51.081Z,50.06
2023-12-02T03:10:36.549Z,49.99
2023-12-02T03:13:21.958Z,50.00
2023-12-02T03:16:07.740Z,50.27
2023-12-02T03:18:53.039Z,50.09
2023-12-02T03:21:38.948Z,50.26
2023-12-02T03:24:24.614Z,50.23
2023-12-02T03:27:10.199Z,50.08
2023-12-02T03:29:55.602Z,50.16
2023-12-02T03:32:40.970Z,50.10
2023-12-02T03:35:26.359Z,50.10
2023-12-02T03:38:11.921Z,50.19
2023-12-02T03:40:57.490Z,50.31
2023-12-02T03:43:54.644Z,50.19
2023-12-02T03:46:44.346Z,50.29
2023-12-02T03:49:30.140Z,50.11
2023-12-02T03:52:15.377Z,50.24
2023-12-02T03:55:00.729Z,50.21
2023-12-02T03:57:46.118Z,50.15
2023-12-02T04:00:31.544Z,50.11
2023-12-02T04:03:16.955Z,50.12
2023-12-02T04:06:02.308Z,50.01
2023-12-02T04:08:47.721Z,50.03
2023-12-02T04:11:33.357Z,50.07
2023-12-02T04:14:18.798Z,50.06
2023-12-02T04:17:04.313Z,50.17
2023-12-02T04:19:49.839Z,50.09
2023-12-02T04:22:35.777Z,50.16
2023-12-02T04:25:21.228Z,50.17
2023-12-02T04:28:06.620Z,50.13
2023-12-02T04:30:52.984Z,50.14
2023-12-02T04:33:38.464Z,50.34
2023-12-02T04:36:23.779Z,50.26
2023-12-02T04:39:12.717Z,50.20
2023-12-02T04:41:58.329Z,50.13
2023-12-02T04:44:43.972Z,50.17
2023-12-02T04:47:29.183Z,50.29
2023-12-02T04:50:14.505Z,50.32
2023-12-02T04:52:59.810Z,50.19
2023-12-02T04:55:45.184Z,50.32
2023-12-02T04:58:30.540Z,50.28
2023-12-02T05:01:16.034Z,50.20
2023-12-02T05:04:01.356Z,50.19
2023-12-02T05:06:46.768Z,50.10
2023-12-02T05:09:32.129Z,50.19
2023-12-02T05:12:17.602Z,50.12
2023-12-02T05:15:03.285Z,50.21
2023-12-02T05:17:48.653Z,50.06
2023-12-02T05:20:34.225Z,50.05
2023-12-02T05:23:19.621Z,50.01
2023-12-02T05:26:07.901Z,50.14
2023-12-02T05:28:53.758Z,50.14
2023-12-02T05:31:39.560Z,50.09
2023-12-02T05:34:25.604Z,50.34
2023-12-02T05:37:11.910Z,50.30
2023-12-02T05:39:57.539Z,50.31
2023-12-02T05:42:42.925Z,50.25
2023-12-02T05:45:28.446Z,50.22
2023-12-02T05:48:13.788Z,50.20
2023-12-02T05:51:01.855Z,50.18
2023-12-02T05:53:47.065Z,50.02
2023-12-02T05:56:32.542Z,50.01
2023-12-02T05:59:18.931Z,49.85
2023-12-02T06:02:04.884Z,49.84
2023-12-02T06:04:50.935Z,49.81
2023-12-02T06:07:36.874Z,49.82
2023-12-02T06:10:22.731Z,49.85
2023-12-02T06:13:08.744Z,49.64
2023-12-02T06:15:54.092Z,49.59
2023-12-02T06:18:40.220Z,49.67
2023-12-02T06:21:26.073Z,49.87
2023-12-02T06:24:12.010Z,49.70
2023-12-02T06:26:57.800Z,49.89
2023-12-02T06:29:44.061Z,50.01
2023-12-02T06:32:29.543Z,49.76
2023-12-02T06:35:14.990Z,50.18
2023-12-02T06:38:00.464Z,50.10
2023-12-02T06:40:46.001Z,50.12
2023-12-02T06:43:31.360Z,49.83
2023-12-02T06:46:24.520Z,49.65
2023-12-02T06:49:09.984Z,49.53
2023-12-02T06:51:55.275Z,49.67
2023-12-02T06:54:40.755Z,49.83
2023-12-02T06:57:26.339Z,50.11
2023-12-02T07:00:15.175Z,50.06
2023-12-02T07:03:01.267Z,50.33
2023-12-02T07:05:47.696Z,49.96
2023-12-02T07:08:33.082Z,50.08
2023-12-02T07:11:19.788Z,50.11
2023-12-02T07:14:05.679Z,50.27
2023-12-02T07:16:51.684Z,49.96
2023-12-02T07:19:37.915Z,49.64
2023-12-02T07:22:24.007Z,49.71
2023-12-02T07:25:09.937Z,49.66
2023-12-02T07:27:55.815Z,49.88
2023-12-02T07:30:41.155Z,50.30
2023-12-02T07:33:26.898Z,49.95
2023-12-02T07:36:13.398Z,49.89
2023-12-02T07:38:59.075Z,49.80
2023-12-02T07:41:46.435Z,49.75
2023-12-02T07:44:32.221Z,49.80
2023-12-02T07:47:17.912Z,50.05
2023-12-02T07:50:03.835Z,49.77
2023-12-02T07:52:49.414Z,49.50
2023-12-02T07:55:35.069Z,48.08
2023-12-02T07:58:20.590Z,42.18
2023-12-02T08:01:06.585Z,38.57
2023-12-02T08:03:52.044Z,36.24
2023-12-02T08:06:37.942Z,43.87
2023-12-02T08:09:23.329Z,44.52
2023-12-02T08:12:09.775Z,44.40
2023-12-02T08:14:55.217Z,44.74
2023-12-02T08:17:41.017Z,44.85
2023-12-02T08:20:26.763Z,44.67
2023-12-02T08:23:12.716Z,44.87
2023-12-02T08:25:59.050Z,45.39
2023-12-02T08:28:47.620Z,45.67
2023-12-02T08:31:33.797Z,45.92
2023-12-02T08:34:19.135Z,46.08
2023-12-02T08:37:04.901Z,46.36
2023-12-02T08:39:50.023Z,46.27
2023-12-02T08:42:35.742Z,46.40
2023-12-02T08:45:21.480Z,46.36
2023-12-02T08:48:07.525Z,46.35
2023-12-02T08:50:54.483Z,46.71
2023-12-02T08:53:40.084Z,46.64
2023-12-02T08:56:27.865Z,46.77
2023-12-02T08:59:14.052Z,47.29
2023-12-02T09:02:00.553Z,47.28
2023-12-02T09:04:46.181Z,47.78
2023-12-02T09:07:32.256Z,47.67
2023-12-02T09:10:18.114Z,47.75
2023-12-02T09:13:25.075Z,47.58
2023-12-02T09:16:11.803Z,47.63
2023-12-02T09:18:58.102Z,48.03
2023-12-02T09:21:45.236Z,48.17
2023-12-02T09:24:38.743Z,48.38
2023-12-02T09:27:59.683Z,48.36
2023-12-02T09:31:09.875Z,48.65
2023-12-02T09:34:04.143Z,48.67
2023-12-02T09:36:49.801Z,49.30
2023-12-02T09:40:00.743Z,48.91
2023-12-02T09:42:52.061Z,48.88
2023-12-02T09:46:03.886Z,49.16
2023-12-02T09:49:11.924Z,48.85
2023-12-02T09:52:23.082Z,48.65
2023-12-02T09:55:18.025Z,48.70
2023-12-02T09:58:25.661Z,48.67
2023-12-02T10:01:38.846Z,48.75
2023-12-02T10:04:52.842Z,48.94
2023-12-02T10:07:53.722Z,48.99
2023-12-02T10:11:01.510Z,49.17
2023-12-02T10:14:09.519Z,50.20
2023-12-02T10:16:56.337Z,49.49
2023-12-02T10:19:53.462Z,49.61
2023-12-02T10:22:46.892Z,49.64
2023-12-02T10:25:38.410Z,49.69
2023-12-02T10:28:37.047Z,49.54
2023-12-02T10:31:28.933Z,49.98
2023-12-02T10:34:29.832Z,49.92
2023-12-02T10:37:16.178Z,50.19
2023-12-02T10:40:09.878Z,50.39
2023-12-02T10:43:27.445Z,49.49
2023-12-02T10:46:13.643Z,49.45
2023-12-02T10:49:01.191Z,49.42
2023-12-02T10:52:40.558Z,49.35
2023-12-02T10:55:02.534Z,49.39
2023-12-02T10:57:49.185Z,48.98
2023-12-02T11:00:36.401Z,48.26
2023-12-02T11:03:33.390Z,48.15
2023-12-02T11:06:57.638Z,47.91
2023-12-02T11:09:52.643Z,47.80
2023-12-02T11:12:48.246Z,48.46
2023-12-02T11:15:47.707Z,48.74
2023-12-02T11:19:12.438Z,48.99
2023-12-02T11:22:09.891Z,49.02
2023-12-02T11:25:05.143Z,49.12
2023-12-02T11:28:00.400Z,48.99
2023-12-02T11:31:11.361Z,48.89
2023-12-02T11:34:15.532Z,48.91
2023-12-02T11:37:04.211Z,48.71
2023-12-02T11:40:11.168Z,48.49
2023-12-02T11:43:09.632Z,48.31
2023-12-02T11:45:58.399Z,48.45
2023-12-02T11:49:08.675Z,48.47
2023-12-02T11:52:06.087Z,48.00
2023-12-02T11:55:14.394Z,48.37
2023-12-02T11:58:29.386Z,48.28
2023-12-02T12:01:18.213Z,48.53
2023-12-02T12:04:06.518Z,48.54
2023-12-02T12:07:07.346Z,48.64
2023-12-02T12:10:04.922Z,48.53
2023-12-02T12:12:55.223Z,48.37
2023-12-02T12:15:41.476Z,48.58
2023-12-02T12:18:27.094Z,48.38
2023-12-02T12:21:13.036Z,48.34
2023-12-02T12:23:58.407Z,47.00
2023-12-02T12:26:45.858Z,47.42
2023-12-02T12:29:31.497Z,47.81
2023-12-02T12:32:18.108Z,47.98
2023-12-02T12:35:12.151Z,48.46
2023-12-02T12:37:57.428Z,48.54
2023-12-02T12:40:45.012Z,48.85
2023-12-02T12:43:31.031Z,49.00
2023-12-02T12:46:17.229Z,49.13
2023-12-02T12:49:09.106Z,49.25
2023-12-02T12:52:02.255Z,49.34
2023-12-02T12:54:59.723Z,49.52
2023-12-02T12:57:51.718Z,49.12
2023-12-02T13:00:41.174Z,49.35
2023-12-02T13:03:50.583Z,49.01
2023-12-02T13:06:49.700Z,49.01
2023-12-02T13:09:35.373Z,49.26
2023-12-02T13:12:21.335Z,48.78
2023-12-02T13:15:11.828Z,48.61
2023-12-02T13:17:58.188Z,48.66
2023-12-02T13:20:44.664Z,48.79
2023-12-02T13:23:32.234Z,48.26
2023-12-02T13:26:26.198Z,48.29
2023-12-02T13:29:18.450Z,47.86
2023-12-02T13:32:04.610Z,48.12
2023-12-02T13:34:57.090Z,48.21
2023-12-02T13:38:16.608Z,48.51
2023-12-02T13:41:15.793Z,48.52
2023-12-02T13:44:05.382Z,48.75
2023-12-02T13:47:10.232Z,48.89
2023-12-02T13:50:00.547Z,48.94
2023-12-02T13:52:52.372Z,49.07
2023-12-02T13:56:00.404Z,48.79
2023-12-02T13:59:09.526Z,48.62
2023-12-02T14:02:27.017Z,48.95
2023-12-02T14:05:42.161Z,48.48
2023-12-02T14:08:34.756Z,48.22
2023-12-02T14:11:32.797Z,48.23
2023-12-02T14:14:47.099Z,48.18
2023-12-02T14:17:47.564Z,48.28
2023-12-02T14:21:11.520Z,48.78
2023-12-02T14:24:21.783Z,49.33
2023-12-02T14:27:19.563Z,49.17
2023-12-02T14:30:24.434Z,49.00
2023-12-02T14:33:37.966Z,48.76
2023-12-02T14:36:50.357Z,48.63
2023-12-02T14:40:11.529Z,48.45
2023-12-02T14:43:04.236Z,48.20
2023-12-02T14:45:52.323Z,48.26
2023-12-02T14:48:40.701Z,48.17
2023-12-02T14:51:32.893Z,48.20
2023-12-02T14:54:33.568Z,48.06
2023-12-02T14:57:26.529Z,47.68
2023-12-02T15:00:13.390Z,47.80
2023-12-02T15:02:59.971Z,47.89
2023-12-02T15:05:47.548Z,47.56
2023-12-02T15:08:42.376Z,45.05
2023-12-02T15:11:34.692Z,46.01
2023-12-02T15:14:21.341Z,46.55
2023-12-02T15:17:09.424Z,46.92
2023-12-02T15:19:54.997Z,47.00
2023-12-02T15:22:41.539Z,47.19
2023-12-02T15:25:27.702Z,47.05
2023-12-02T15:28:30.942Z,47.29
2023-12-02T15:31:17.127Z,47.33
2023-12-02T15:34:04.408Z,47.29
2023-12-02T15:36:49.630Z,47.44
2023-12-02T15:39:35.158Z,47.42
2023-12-02T15:42:20.474Z,47.41
2023-12-02T15:45:06.610Z,47.95
2023-12-02T15:47:52.149Z,47.50
2023-12-02T15:50:37.927Z,47.51
2023-12-02T15:53:25.021Z,47.84
2023-12-02T15:56:11.618Z,47.57
2023-12-02T15:58:59.130Z,47.14
2023-12-02T16:01:50.716Z,47.21
2023-12-02T16:04:37.613Z,47.25
2023-12-02T16:07:24.076Z,47.25
2023-12-02T16:10:14.311Z,47.32
2023-12-02T16:13:01.741Z,47.35
2023-12-02T16:15:47.044Z,47.55
2023-12-02T16:18:33.118Z,47.32
2023-12-02T16:21:20.206Z,47.21
2023-12-02T16:24:07.407Z,46.66
2023-12-02T16:26:53.427Z,46.75
2023-12-02T16:29:53.958Z,46.84
2023-12-02T16:32:39.567Z,47.02
2023-12-02T16:35:25.488Z,46.82
2023-12-02T16:38:10.509Z,46.78
2023-12-02T16:40:56.132Z,46.67
2023-12-02T16:43:41.656Z,46.80
2023-12-02T16:46:27.827Z,46.44
2023-12-02T16:49:15.552Z,46.46
2023-12-02T16:52:03.499Z,46.17
2023-12-02T16:54:49.430Z,46.27
2023-12-02T16:57:34.996Z,46.28
2023-12-02T17:00:21.965Z,46.42
2023-12-02T17:03:08.881Z,46.46
2023-12-02T17:05:53.932Z,46.02
2023-12-02T17:08:42.468Z,46.16
2023-12-02T17:11:30.500Z,45.88
2023-12-02T17:14:19.443Z,46.07
2023-12-02T17:17:06.444Z,45.60
2023-12-02T17:19:52.056Z,45.66
2023-12-02T17:22:37.438Z,45.59
2023-12-02T17:26:01.939Z,45.64
2023-12-02T17:28:47.629Z,45.43
2023-12-02T17:31:36.730Z,45.29
2023-12-02T17:34:23.803Z,45.08
2023-12-02T17:37:09.574Z,45.26
2023-12-02T17:39:55.581Z,45.64
2023-12-02T17:42:41.185Z,45.89
2023-12-02T17:45:26.632Z,45.79
2023-12-02T17:48:12.507Z,45.93
2023-12-02T17:50:57.971Z,46.19
2023-12-02T17:53:43.818Z,46.42
2023-12-02T17:56:29.768Z,46.54
2023-12-02T17:59:15.663Z,46.67
2023-12-02T18:02:01.550Z,46.88
2023-12-02T18:04:46.877Z,47.04
2023-12-02T18:07:32.756Z,47.30
2023-12-02T18:10:18.951Z,47.36
2023-12-02T18:13:04.525Z,47.23
2023-12-02T18:15:50.066Z,47.30
2023-12-02T18:18:35.488Z,47.08
2023-12-02T18:21:21.621Z,46.51
2023-12-02T18:24:09.503Z,46.47
2023-12-02T18:26:54.852Z,46.81
2023-12-02T18:29:40.695Z,46.91
2023-12-02T18:32:26.584Z,46.62
2023-12-02T18:35:11.808Z,46.56
2023-12-02T18:37:57.501Z,46.15
2023-12-02T18:40:43.131Z,46.08
2023-12-02T18:43:28.441Z,46.06
2023-12-02T18:46:14.110Z,45.73
2023-12-02T18:48:59.451Z,45.80
2023-12-02T18:51:44.757Z,45.81
2023-12-02T18:54:30.230Z,45.86
2023-12-02T18:57:16.106Z,45.69
2023-12-02T19:00:08.016Z,45.51
2023-12-02T19:02:54.101Z,45.75
2023-12-02T19:05:39.809Z,45.80
2023-12-02T19:08:25.579Z,46.01
2023-12-02T19:11:12.315Z,46.20
2023-12-02T19:13:58.102Z,46.22
2023-12-02T19:16:44.309Z,46.42
2023-12-02T19:19:30.817Z,46.23
2023-12-02T19:22:16.755Z,46.09
2023-12-02T19:25:02.899Z,46.41
2023-12-02T19:27:48.742Z,46.20
2023-12-02T19:30:34.453Z,46.22
2023-12-02T19:33:20.386Z,46.25
2023-12-02T19:36:07.190Z,46.18
2023-12-02T19:38:53.757Z,46.34
2023-12-02T19:45:12.479Z,47.01
2023-12-02T19:47:58.014Z,46.80
2023-12-02T19:50:44.326Z,46.74
2023-12-02T19:53:30.217Z,46.75
2023-12-02T19:56:16.449Z,46.65
2023-12-02T19:59:02.359Z,46.67
2023-12-02T20:01:48.705Z,46.69
2023-12-02T20:04:34.611Z,46.70
2023-12-02T20:07:20.574Z,46.81
2023-12-02T20:10:07.989Z,47.22
2023-12-02T20:12:53.995Z,47.44
2023-12-02T20:15:40.366Z,47.55
2023-12-02T20:18:26.865Z,47.69
2023-12-02T20:21:12.452Z,47.73
2023-12-02T20:23:58.715Z,47.92
2023-12-02T20:26:45.341Z,47.79
2023-12-02T20:29:30.924Z,47.91
2023-12-02T20:32:16.515Z,47.95
2023-12-02T20:35:02.730Z,48.05
2023-12-02T20:37:48.435Z,48.05
2023-12-02T20:40:34.190Z,48.20
2023-12-02T20:43:20.570Z,48.29
2023-12-02T20:46:07.229Z,48.26
2023-12-02T20:48:56.652Z,48.00
2023-12-02T20:51:43.110Z,48.13
2023-12-02T20:54:28.729Z,48.04
2023-12-02T20:57:14.234Z,47.91
2023-12-02T20:59:59.720Z,47.82
2023-12-02T21:02:45.435Z,47.16
2023-12-02T21:05:31.093Z,47.40
2023-12-02T21:08:16.765Z,47.02
2023-12-02T21:11:03.290Z,47.42
2023-12-02T21:13:48.967Z,47.16
2023-12-02T21:16:35.153Z,47.28
2023-12-02T21:19:20.677Z,47.24
2023-12-02T21:22:06.100Z,47.25
2023-12-02T21:24:51.689Z,47.34
2023-12-02T21:27:38.021Z,47.15
2023-12-02T21:30:23.770Z,47.24
2023-12-02T21:33:15.945Z,47.10
2023-12-02T21:36:01.610Z,47.08
2023-12-02T21:38:52.826Z,47.18
2023-12-02T21:41:38.161Z,47.18
2023-12-02T21:44:23.649Z,47.23
2023-12-02T21:47:15.372Z,47.03
2023-12-02T21:50:04.355Z,46.90
2023-12-02T21:52:54.153Z,48.02
2023-12-02T21:55:39.792Z,48.06
2023-12-02T21:58:37.137Z,48.25
2023-12-02T22:01:26.131Z,48.50
2023-12-02T22:04:23.149Z,48.54
2023-12-02T22:07:36.787Z,49.04
2023-12-02T22:10:30.789Z,48.86
2023-12-02T22:13:20.613Z,49.01
2023-12-02T22:16:07.239Z,48.65
2023-12-02T22:18:53.016Z,48.61
2023-12-02T22:21:38.336Z,48.95
2023-12-02T22:24:24.206Z,49.09
2023-12-02T22:27:17.963Z,49.13
2023-12-02T22:30:21.328Z,49.30
2023-12-02T22:33:07.255Z,49.00
2023-12-02T22:36:02.630Z,48.95
2023-12-02T22:38:49.709Z,49.12
2023-12-02T22:41:34.974Z,49.25
2023-12-02T22:44:21.087Z,48.94
2023-12-02T22:47:10.816Z,49.34
2023-12-02T22:49:56.310Z,49.09
2023-12-02T22:52:41.486Z,49.28
2023-12-02T22:55:51.483Z,48.83
2023-12-02T22:58:46.431Z,49.16
2023-12-02T23:01:37.950Z,49.17
2023-12-02T23:04:43.913Z,49.32
2023-12-02T23:07:56.465Z,49.67
2023-12-02T23:10:42.588Z,49.55
2023-12-02T23:13:34.429Z,49.49
2023-12-02T23:16:38.114Z,49.74
2023-12-02T23:19:29.871Z,49.46
2023-12-02T23:22:15.385Z,49.34
2023-12-02T23:25:01.093Z,49.28
2023-12-02T23:27:49.971Z,49.09
2023-12-02T23:30:35.949Z,48.74
2023-12-02T23:33:21.560Z,49.40
2023-12-02T23:36:07.750Z,49.00
2023-12-02T23:38:55.074Z,48.82
2023-12-02T23:41:40.313Z,48.82
2023-12-02T23:44:45.767Z,49.09
2023-12-02T23:47:31.397Z,49.09
2023-12-02T23:50:17.527Z,48.91
2023-12-02T23:53:02.932Z,48.80
2023-12-02T23:55:48.632Z,48.50
2023-12-02T23:58:34.209Z,48.25
